Eppley Airfield Omaha US
ICAO: KOMA
IATA: OMA
Category: Medium
Scheduled Services: Yes

Elevation: 984 ft
TransAlt. 18000 ft.

Airport Communications:
OMAHA APP/DEP:120.1
ATIS:120.4
CLNC DEL:119.9
GND:121.9
FORT DODGE RDO:116.3
COLUMBUS RDO:122.35
OMAHA TWR:132.1
UNICOM:122.95

KOMA Zoom In..

Runways:

(A) RW 14L length 8500 ft width 150 ft
ILS 111.75 / hdg 139

(B) RW 14R length 9502 ft width 150 ft
ILS 110.30 / hdg 139

(C) RW 18 length 8154 ft width 150 ft
ILS 110.90 / hdg 175

(D) RW 32L length 9502 ft width 150 ft
ILS 111.90 / hdg 319

(E) RW 32R length 8500 ft width 150 ft
ILS 111.15 / hdg 319

(F) RW 36 length 8154 ft width 150 ft
ILS 110.70 / hdg 355

Location; KOMA
Day. 25 / Time. 11.52 Zulu
* Altimeter: 30.23
* Temperature: 07° c. 44.6°f.
* Wind from: 340° Speed 12 kn.
Dewpoint: 04° c.
Visibility: 7 Statute Miles.
Clouds: Overcast 6000 ft.
Conditions: Light Rain.

KOMA 251152Z 34012KT 7SM -RA OVC060 07/04 A3023 RMK AO2 RAB1054 SLP240 P0003 60003 70007 T00670044 10100 20067 53010


Wind From 340°
Speed 12 kn.

  YouTube Music Video
 
jpsmedia.com for Web Design  worldairports.se 2018   terms of use